Time;durP1;ratioP1;P1;durP2;ratioP2;P2;SDS_P1;SDS_P2;PMS_P1;PMS_P2;Temp;Humidity;BMP_temperature;BMP_pressure;BME280_temperature;BME280_humidity;BME280_pressure;Samples;Min_cycle;Max_cycle;Signal;HPM_P1;HPM_P2
2021/03/22 00:00:39;;;;;;;28.85;12.95;;;;;;;4.08;94.37;99632.66;4991631;28;20080;-71
2021/03/22 00:03:07;;;;;;;21.52;12.93;;;;;;;4.10;94.26;99624.28;4982336;28;20038;-71
2021/03/22 00:05:32;;;;;;;23.05;11.68;;;;;;;4.05;93.66;99608.72;4985607;28;20372;-71
2021/03/22 00:07:58;;;;;;;29.75;11.80;;;;;;;4.01;93.78;99601.72;4975855;28;20041;-72
2021/03/22 00:10:26;;;;;;;21.60;8.38;;;;;;;3.94;94.42;99611.53;4980471;28;20046;-71
2021/03/22 00:12:52;;;;;;;24.05;8.38;;;;;;;4.03;94.99;99589.88;4991901;28;20088;-72
2021/03/22 00:15:18;;;;;;;13.30;6.68;;;;;;;4.04;94.08;99553.31;4993024;28;20482;-72
2021/03/22 00:17:44;;;;;;;20.15;7.72;;;;;;;4.05;93.54;99561.88;4992795;28;20029;-71
2021/03/22 00:20:11;;;;;;;16.92;6.72;;;;;;;3.87;93.46;99551.63;4992790;28;20056;-71
2021/03/22 00:22:36;;;;;;;23.15;7.50;;;;;;;3.97;93.86;99558.94;4992734;28;20481;-71
2021/03/22 00:25:04;;;;;;;13.82;6.18;;;;;;;4.05;93.80;99572.97;4985873;28;20030;-72
2021/03/22 00:27:30;;;;;;;12.55;5.70;;;;;;;4.09;93.11;99563.78;4993398;28;20117;-70
2021/03/22 00:29:55;;;;;;;14.75;6.03;;;;;;;4.15;93.15;99553.84;4994419;28;20176;-73
2021/03/22 00:32:21;;;;;;;20.90;8.05;;;;;;;4.17;93.15;99546.25;5023931;28;20041;-70
2021/03/22 00:34:46;;;;;;;23.05;9.63;;;;;;;4.21;93.24;99545.56;4998425;28;20121;-72
2021/03/22 00:37:12;;;;;;;33.83;11.48;;;;;;;4.20;93.56;99536.19;5007677;28;20824;-71
2021/03/22 00:39:37;;;;;;;29.55;13.30;;;;;;;4.15;93.32;99532.50;4992964;28;20034;-72
2021/03/22 00:42:03;;;;;;;31.75;12.20;;;;;;;4.07;93.27;99503.19;4990753;28;20058;-71
2021/03/22 00:44:29;;;;;;;39.90;15.50;;;;;;;4.05;93.50;99496.34;5002945;28;20485;-72
2021/03/22 00:46:54;;;;;;;34.00;15.07;;;;;;;4.04;93.72;99492.03;5002003;28;20042;-71
2021/03/22 00:49:20;;;;;;;40.03;13.30;;;;;;;4.00;94.23;99481.59;5002636;28;20544;-71
2021/03/22 00:51:46;;;;;;;30.88;13.02;;;;;;;3.81;93.87;99456.88;4975300;28;20035;-73
2021/03/22 00:54:12;;;;;;;33.17;11.43;;;;;;;3.99;93.97;99488.38;4997653;28;20586;-71
2021/03/22 00:56:38;;;;;;;27.33;12.10;;;;;;;4.03;93.47;99486.84;5004210;28;20485;-72
2021/03/22 00:59:03;;;;;;;23.45;9.73;;;;;;;4.11;93.42;99475.31;5009941;28;20130;-70
2021/03/22 01:01:29;;;;;;;21.55;9.63;;;;;;;4.12;92.76;99466.84;4997206;28;20109;-70
2021/03/22 01:03:55;;;;;;;25.13;12.27;;;;;;;4.14;92.96;99447.34;4979362;28;20047;-71
2021/03/22 01:06:20;;;;;;;15.38;7.07;;;;;;;3.97;92.74;99441.44;4986686;28;20032;-74
2021/03/22 01:08:47;;;;;;;27.08;8.15;;;;;;;3.95;93.27;99430.31;4992685;28;20030;-72
2021/03/22 01:11:15;;;;;;;21.75;8.13;;;;;;;3.91;93.53;99443.72;4993012;28;20030;-73
2021/03/22 01:13:53;;;;;;;23.90;8.50;;;;;;;3.83;93.68;99411.88;4978651;28;20026;-74
2021/03/22 01:16:32;;;;;;;16.60;7.65;;;;;;;3.93;93.34;99428.50;4992668;28;20034;-74
2021/03/22 01:19:00;;;;;;;16.17;7.45;;;;;;;3.59;93.67;99373.28;4992624;28;20034;-75
2021/03/22 01:21:38;;;;;;;10.50;6.65;;;;;;;3.88;93.23;99402.75;4990337;28;20062;-74
2021/03/22 01:24:04;;;;;;;14.68;6.90;;;;;;;3.81;93.78;99390.47;4992847;28;20375;-72
2021/03/22 01:26:35;;;;;;;10.95;6.72;;;;;;;3.72;93.68;99380.72;4991518;28;20486;-72
2021/03/22 01:29:06;;;;;;;38.58;16.17;;;;;;;3.89;94.11;99417.25;4992394;28;20072;-74
2021/03/22 01:31:32;;;;;;;17.83;7.37;;;;;;;3.91;93.36;99409.66;4992284;28;20026;-75
2021/03/22 01:33:57;;;;;;;21.27;9.48;;;;;;;3.80;93.06;99378.53;4992298;28;20041;-75
2021/03/22 01:36:26;;;;;;;10.48;6.78;;;;;;;3.81;93.39;99401.56;4992640;28;20037;-75
2021/03/22 01:38:54;;;;;;;17.90;7.82;;;;;;;3.82;93.27;99395.66;4990834;28;20410;-74
2021/03/22 01:41:44;;;;;;;13.48;6.80;;;;;;;3.78;93.63;99398.03;4992272;28;20038;-71
2021/03/22 01:44:19;;;;;;;18.00;8.50;;;;;;;3.71;93.71;99392.63;4991929;28;20494;-74
2021/03/22 01:47:08;;;;;;;16.15;6.93;;;;;;;3.60;93.71;99373.38;4992058;28;20032;-74
2021/03/22 01:49:50;;;;;;;15.70;7.60;;;;;;;3.61;94.12;99343.63;4992164;28;20029;-75
2021/03/22 01:52:16;;;;;;;11.47;7.10;;;;;;;3.68;94.21;99346.53;4991668;28;20026;-74
2021/03/22 01:54:42;;;;;;;10.48;6.88;;;;;;;3.80;93.81;99378.53;4991711;28;20030;-72
2021/03/22 01:57:31;;;;;;;20.15;8.02;;;;;;;3.77;94.35;99361.38;4992040;28;20101;-75
2021/03/22 02:00:08;;;;;;;13.48;7.32;;;;;;;3.77;94.32;99355.41;4991917;28;20421;-72
2021/03/22 02:02:35;;;;;;;17.80;7.57;;;;;;;3.69;94.50;99352.53;4991952;28;20113;-71
2021/03/22 02:05:01;;;;;;;14.80;7.78;;;;;;;3.53;94.78;99331.38;4991545;28;20490;-75
2021/03/22 02:07:29;;;;;;;14.82;7.43;;;;;;;3.75;94.88;99347.69;4991833;28;20030;-77
2021/03/22 02:09:55;;;;;;;15.37;7.30;;;;;;;3.78;94.73;99346.97;4989464;28;20038;-74
2021/03/22 02:12:21;;;;;;;20.77;10.27;;;;;;;3.71;94.58;99335.56;4980508;28;20027;-75
2021/03/22 02:14:49;;;;;;;19.33;7.80;;;;;;;3.83;94.74;99366.78;4987414;28;20057;-73
2021/03/22 02:17:30;;;;;;;10.48;6.78;;;;;;;3.86;94.63;99377.16;4985936;28;20049;-75
2021/03/22 02:20:08;;;;;;;22.98;9.68;;;;;;;3.92;94.33;99370.56;4989582;28;20061;-74
2021/03/22 02:22:38;;;;;;;14.02;7.88;;;;;;;3.91;93.37;99356.03;4991346;28;20073;-74
2021/03/22 02:25:36;;;;;;;19.13;8.05;;;;;;;3.92;93.88;99347.59;4990331;28;20042;-72
2021/03/22 02:28:29;;;;;;;28.33;12.52;;;;;;;3.92;93.70;99343.34;4983322;28;20693;-74
2021/03/22 02:31:39;;;;;;;31.98;11.02;;;;;;;3.93;94.54;99339.97;4991547;28;20173;-73
2021/03/22 02:34:20;;;;;;;16.70;7.82;;;;;;;3.89;94.58;99349.19;4990386;28;20081;-73
2021/03/22 02:36:52;;;;;;;19.33;7.75;;;;;;;3.84;94.29;99350.66;4985502;28;20050;-73
2021/03/22 02:39:19;;;;;;;22.92;9.57;;;;;;;3.82;94.41;99344.59;4974920;28;20042;-72
2021/03/22 02:41:48;;;;;;;30.85;13.73;;;;;;;3.86;94.86;99326.06;4973261;28;20039;-73
2021/03/22 02:44:32;;;;;;;39.83;14.38;;;;;;;3.15;94.88;99214.78;4979497;28;20383;-73
2021/03/22 02:47:03;;;;;;;30.08;11.27;;;;;;;3.58;95.19;99262.69;4972308;28;20121;-70
2021/03/22 02:49:33;;;;;;;16.90;8.00;;;;;;;3.89;94.42;99315.13;4972691;28;20081;-72
2021/03/22 02:52:15;;;;;;;34.75;12.55;;;;;;;3.80;94.46;99315.59;4985512;28;20109;-73
2021/03/22 02:55:06;;;;;;;18.00;7.90;;;;;;;3.81;94.77;99301.13;4985981;28;20027;-70
2021/03/22 02:57:55;;;;;;;23.95;7.68;;;;;;;3.86;94.49;99320.09;4985252;28;20027;-70
2021/03/22 03:00:27;;;;;;;15.73;7.88;;;;;;;3.88;94.20;99323.59;4989242;28;20169;-73
2021/03/22 03:02:57;;;;;;;19.20;9.07;;;;;;;3.78;94.12;99306.13;4980103;28;20039;-74
2021/03/22 03:05:26;;;;;;;18.65;8.18;;;;;;;3.95;93.95;99314.50;4977229;28;20027;-74
2021/03/22 03:08:06;;;;;;;19.35;8.02;;;;;;;3.93;94.03;99328.91;4989483;28;20039;-71
2021/03/22 03:10:31;;;;;;;14.30;6.90;;;;;;;3.77;94.07;99289.91;4995101;28;20026;-74
2021/03/22 03:12:57;;;;;;;24.73;10.38;;;;;;;3.85;94.51;99303.91;4995238;28;20031;-73
2021/03/22 03:15:24;;;;;;;23.52;9.95;;;;;;;3.93;94.13;99304.22;4994657;28;20022;-73
2021/03/22 03:17:51;;;;;;;35.58;14.25;;;;;;;3.87;94.74;99309.94;4994879;28;20037;-72
2021/03/22 03:20:24;;;;;;;49.15;17.02;;;;;;;3.86;95.19;99305.66;4994173;28;20478;-73
2021/03/22 03:22:54;;;;;;;30.52;15.07;;;;;;;3.75;95.19;99288.09;4994598;28;20080;-70
2021/03/22 03:25:20;;;;;;;32.88;17.15;;;;;;;3.72;95.39;99312.66;4994805;28;20026;-72
2021/03/22 03:27:46;;;;;;;44.95;19.50;;;;;;;3.45;95.63;99280.78;4992093;28;20027;-70
2021/03/22 03:30:18;;;;;;;39.97;19.50;;;;;;;3.61;96.03;99313.00;4990945;28;20093;-70
2021/03/22 03:32:44;;;;;;;64.32;44.97;;;;;;;3.64;96.59;99310.56;4994057;28;20022;-74
2021/03/22 03:35:11;;;;;;;45.75;23.30;;;;;;;3.73;96.33;99322.06;4994258;28;20026;-71
2021/03/22 03:37:38;;;;;;;34.27;15.67;;;;;;;3.64;95.93;99293.59;4994605;28;20486;-71
2021/03/22 03:40:18;;;;;;;30.85;16.58;;;;;;;3.80;96.23;99313.03;4994280;28;20065;-75
2021/03/22 03:42:44;;;;;;;33.00;18.10;;;;;;;3.63;96.24;99294.38;4994303;28;20042;-72
2021/03/22 03:45:13;;;;;;;40.15;19.88;;;;;;;3.69;96.32;99291.25;4994154;28;20113;-71
2021/03/22 03:47:39;;;;;;;28.35;15.35;;;;;;;3.77;95.97;99301.81;4986366;28;20068;-72
2021/03/22 03:50:17;;;;;;;28.23;16.13;;;;;;;3.70;96.13;99295.53;4993906;28;20045;-75
2021/03/22 03:52:43;;;;;;;59.78;24.65;;;;;;;3.65;96.07;99297.91;4994009;28;20413;-75
2021/03/22 03:55:10;;;;;;;31.27;14.35;;;;;;;3.62;96.46;99289.22;4994199;28;20489;-73
2021/03/22 03:57:35;;;;;;;26.67;14.27;;;;;;;3.59;96.88;99294.16;4994310;28;20033;-74
2021/03/22 04:00:04;;;;;;;36.47;19.35;;;;;;;3.60;97.24;99286.59;4994327;28;20030;-72
2021/03/22 04:02:29;;;;;;;38.13;19.98;;;;;;;3.39;97.08;99238.03;4993889;28;20505;-74
2021/03/22 04:04:55;;;;;;;45.25;23.52;;;;;;;3.62;97.06;99284.97;4994155;28;20037;-75
2021/03/22 04:07:20;;;;;;;37.13;22.52;;;;;;;3.43;96.70;99254.31;4985547;28;20030;-72
2021/03/22 04:09:48;;;;;;;37.30;19.98;;;;;;;3.61;97.37;99270.47;4993794;28;20030;-72
2021/03/22 04:12:14;;;;;;;48.65;22.13;;;;;;;3.49;96.75;99260.59;4993816;28;20027;-72
2021/03/22 04:14:39;;;;;;;25.45;16.15;;;;;;;3.56;96.10;99264.28;4992961;28;20043;-76
2021/03/22 04:17:05;;;;;;;53.67;25.15;;;;;;;3.66;96.06;99279.19;4994113;28;20062;-74
2021/03/22 04:19:30;;;;;;;38.58;19.55;;;;;;;3.54;96.01;99258.25;4988621;28;20023;-72
2021/03/22 04:21:56;;;;;;;28.05;15.10;;;;;;;3.67;96.39;99275.00;4992157;28;20501;-72
2021/03/22 04:24:21;;;;;;;39.65;17.55;;;;;;;3.65;95.40;99274.94;4993936;28;20035;-73
2021/03/22 04:26:47;;;;;;;38.50;20.63;;;;;;;3.60;95.95;99267.84;4994024;28;20030;-72
2021/03/22 04:29:13;;;;;;;31.33;17.30;;;;;;;3.47;96.02;99240.91;4993434;28;20026;-74
2021/03/22 04:31:39;;;;;;;29.17;14.87;;;;;;;3.45;96.10;99250.16;4993933;28;20040;-74
2021/03/22 04:34:05;;;;;;;20.33;11.73;;;;;;;3.55;96.55;99262.53;4993612;28;20034;-72
2021/03/22 04:36:35;;;;;;;25.25;12.75;;;;;;;3.47;96.91;99264.75;4993684;28;20093;-74
2021/03/22 04:39:02;;;;;;;22.08;10.57;;;;;;;3.43;97.15;99278.16;4993451;28;20026;-71
2021/03/22 04:41:27;;;;;;;17.67;9.40;;;;;;;3.37;97.22;99272.78;4993068;28;20041;-75
2021/03/22 04:43:53;;;;;;;13.50;10.02;;;;;;;3.39;97.23;99261.84;4992794;28;20050;-75
2021/03/22 04:46:19;;;;;;;15.27;9.35;;;;;;;3.36;97.58;99261.69;4993258;28;20034;-74
2021/03/22 04:48:45;;;;;;;12.88;9.70;;;;;;;3.19;98.07;99231.97;4993701;28;20474;-74
2021/03/22 04:51:10;;;;;;;14.47;10.07;;;;;;;3.41;98.48;99246.59;4990847;28;20035;-72
2021/03/22 04:57:10;;;;;;;11.77;8.47;;;;;;;3.22;97.66;99216.84;4993039;28;20084;-72
2021/03/22 04:59:37;;;;;;;12.23;8.67;;;;;;;3.08;98.21;99204.31;4991671;28;20031;-74
2021/03/22 05:02:23;;;;;;;11.80;9.10;;;;;;;3.32;98.28;99249.59;4993261;28;20030;-72
2021/03/22 05:04:49;;;;;;;10.73;7.83;;;;;;;3.36;98.07;99240.41;4990063;28;20042;-76
2021/03/22 05:07:15;;;;;;;21.17;16.27;;;;;;;3.36;98.68;99246.38;4980350;28;20042;-74
2021/03/22 05:09:41;;;;;;;12.45;9.32;;;;;;;3.47;98.31;99251.97;4990195;28;20564;-74
2021/03/22 05:12:08;;;;;;;13.20;8.43;;;;;;;3.22;98.08;99209.19;4990197;28;20165;-74
2021/03/22 05:14:34;;;;;;;10.65;7.70;;;;;;;3.56;97.77;99260.06;4990146;28;20120;-74
2021/03/22 05:17:00;;;;;;;10.90;7.97;;;;;;;3.26;97.04;99195.75;4973557;28;20081;-75
2021/03/22 05:19:25;;;;;;;11.95;8.48;;;;;;;3.66;97.23;99251.13;4990044;28;20177;-71
2021/03/22 05:21:54;;;;;;;9.52;7.85;;;;;;;3.70;96.92;99249.59;4989994;28;20034;-72
2021/03/22 05:24:19;;;;;;;11.93;8.15;;;;;;;3.69;96.34;99248.72;4983487;28;20043;-72
2021/03/22 05:26:45;;;;;;;11.63;8.15;;;;;;;3.68;96.32;99239.31;4989986;28;20053;-74
2021/03/22 05:29:10;;;;;;;16.30;9.23;;;;;;;3.78;96.33;99250.81;4989996;28;20594;-74
2021/03/22 05:31:36;;;;;;;22.00;9.40;;;;;;;3.81;95.86;99258.59;4980966;28;20043;-74
2021/03/22 05:34:03;;;;;;;25.63;11.75;;;;;;;3.82;95.99;99262.91;4989627;28;20034;-79
2021/03/22 05:36:29;;;;;;;46.47;17.67;;;;;;;3.89;96.19;99256.41;4982292;28;20485;-73
2021/03/22 05:38:54;;;;;;;38.28;18.15;;;;;;;3.88;96.45;99258.06;4986777;28;20034;-74
2021/03/22 05:41:24;;;;;;;43.50;22.75;;;;;;;3.59;96.80;99213.41;4991992;28;20490;-72
2021/03/22 05:43:55;;;;;;;46.63;25.25;;;;;;;3.82;97.38;99244.16;4987617;28;20506;-74
2021/03/22 05:47:03;;;;;;;40.92;21.88;;;;;;;3.89;96.96;99241.09;4974333;28;20465;-72
2021/03/22 05:49:44;;;;;;;38.35;21.45;;;;;;;3.60;96.52;99212.59;4955743;28;20521;-74
2021/03/22 05:52:19;;;;;;;34.03;18.27;;;;;;;3.84;96.92;99255.34;4974044;28;20023;-74
2021/03/22 05:55:03;;;;;;;48.35;22.77;;;;;;;3.81;97.01;99248.38;4990573;28;20057;-75
2021/03/22 05:57:38;;;;;;;96.95;64.22;;;;;;;3.59;96.69;99208.28;4992158;28;20025;-75
2021/03/22 06:03:57;;;;;;;17.65;12.52;;;;;;;3.57;98.01;99258.38;4990607;28;20532;-73
2021/03/22 06:06:29;;;;;;;14.03;9.63;;;;;;;3.40;99.63;99267.81;4989000;28;20039;-73
2021/03/22 06:09:07;;;;;;;15.73;10.90;;;;;;;3.34;100.00;99252.22;4991884;28;20508;-73
2021/03/22 06:11:32;;;;;;;16.20;13.17;;;;;;;3.30;100.00;99256.34;4992430;28;20033;-73
2021/03/22 06:14:19;;;;;;;38.03;27.07;;;;;;;3.16;100.00;99255.66;4992176;28;20026;-73
2021/03/22 06:16:51;;;;;;;20.67;15.80;;;;;;;2.85;100.00;99195.56;4991875;28;20133;-74
2021/03/22 06:19:18;;;;;;;32.03;20.73;;;;;;;2.99;100.00;99231.06;4991601;28;20098;-73
2021/03/22 06:21:47;;;;;;;12.63;9.77;;;;;;;2.93;100.00;99241.84;4991720;28;20141;-74
2021/03/22 06:24:19;;;;;;;25.20;18.00;;;;;;;3.01;100.00;99243.06;4991992;28;20479;-74
2021/03/22 06:26:47;;;;;;;20.37;14.53;;;;;;;2.98;100.00;99236.94;4991803;28;20038;-74
2021/03/22 06:29:16;;;;;;;22.27;15.13;;;;;;;2.96;100.00;99246.22;4991706;28;20028;-73
2021/03/22 06:31:42;;;;;;;142.10;127.03;;;;;;;2.96;100.00;99244.53;4991948;28;20113;-74
2021/03/22 06:34:10;;;;;;;55.80;45.03;;;;;;;2.99;100.00;99244.69;4992095;28;20038;-74
2021/03/22 06:36:35;;;;;;;20.60;12.90;;;;;;;2.99;100.00;99247.25;4992837;28;20482;-74
2021/03/22 06:39:05;;;;;;;47.63;25.83;;;;;;;3.05;100.00;99244.97;4998316;28;20030;-73
2021/03/22 06:41:50;;;;;;;23.25;14.70;;;;;;;3.16;100.00;99242.91;4998417;28;20125;-74
2021/03/22 06:44:33;;;;;;;15.63;10.47;;;;;;;3.08;100.00;99240.00;4998127;28;20069;-73
2021/03/22 06:47:06;;;;;;;22.53;15.10;;;;;;;3.06;100.00;99240.75;4998435;28;20034;-73
2021/03/22 06:49:34;;;;;;;15.37;11.00;;;;;;;3.10;100.00;99251.97;4993806;28;20038;-73
2021/03/22 06:52:00;;;;;;;9.57;7.60;;;;;;;3.05;100.00;99252.63;4997516;28;20022;-73
2021/03/22 06:54:34;;;;;;;39.73;16.80;;;;;;;2.90;100.00;99234.94;4998238;28;20409;-74
2021/03/22 06:57:35;;;;;;;77.67;27.00;;;;;;;3.02;100.00;99257.56;4997758;28;20034;-73
2021/03/22 07:00:17;;;;;;;266.00;90.93;;;;;;;2.96;100.00;99257.28;4939250;29;20130;-74
2021/03/22 07:02:50;;;;;;;24.20;12.77;;;;;;;3.08;100.00;99270.59;4937773;29;20567;-74
2021/03/22 07:05:30;;;;;;;22.33;12.73;;;;;;;3.12;100.00;99280.97;4937672;29;20054;-74
2021/03/22 07:08:02;;;;;;;42.77;38.33;;;;;;;3.10;100.00;99295.31;4922092;29;20080;-74
2021/03/22 07:10:30;;;;;;;9.27;7.37;;;;;;;3.19;100.00;99305.94;4937991;29;20052;-74
2021/03/22 07:13:22;;;;;;;13.23;9.47;;;;;;;3.13;100.00;99303.09;4937927;29;20031;-74
2021/03/22 07:15:56;;;;;;;14.77;11.30;;;;;;;3.08;100.00;99306.31;4937768;29;20546;-75
2021/03/22 07:18:26;;;;;;;8.73;7.33;;;;;;;3.07;100.00;99299.44;4936604;29;20040;-76
2021/03/22 07:20:54;;;;;;;11.47;7.80;;;;;;;2.75;100.00;99263.09;4945559;29;20095;-76
2021/03/22 07:23:22;;;;;;;13.50;10.20;;;;;;;3.05;100.00;99289.97;4946230;28;20134;-75
2021/03/22 07:25:51;;;;;;;16.33;10.90;;;;;;;2.94;100.00;99294.59;4945908;28;20031;-75
2021/03/22 07:28:41;;;;;;;10.15;7.68;;;;;;;2.90;100.00;99297.78;4945841;29;20050;-75
2021/03/22 07:31:31;;;;;;;20.77;15.30;;;;;;;2.91;100.00;99281.69;4948802;28;20039;-75
2021/03/22 07:34:27;;;;;;;14.93;11.23;;;;;;;2.98;100.00;99287.94;4950035;29;20650;-75
2021/03/22 07:37:04;;;;;;;11.77;8.93;;;;;;;2.91;100.00;99291.88;4985019;28;20044;-74
2021/03/22 07:39:34;;;;;;;10.70;7.30;;;;;;;2.87;100.00;99290.00;4995297;28;20421;-74
2021/03/22 07:42:12;;;;;;;8.43;6.22;;;;;;;2.88;100.00;99290.06;4988080;28;20101;-75
2021/03/22 07:44:46;;;;;;;9.13;6.77;;;;;;;2.82;100.00;99276.16;4995784;28;20030;-73
2021/03/22 07:47:26;;;;;;;7.50;5.47;;;;;;;2.54;100.00;99223.81;4994773;28;20026;-73
2021/03/22 07:50:49;;;;;;;15.30;9.37;;;;;;;2.76;100.00;99269.06;4992056;28;20132;-75
2021/03/22 07:53:28;;;;;;;8.03;5.13;;;;;;;2.77;100.00;99267.38;4971764;28;20042;-73
2021/03/22 07:56:26;;;;;;;22.07;11.30;;;;;;;2.80;100.00;99247.16;4970536;28;20403;-75
2021/03/22 07:59:17;;;;;;;78.47;26.87;;;;;;;2.93;100.00;99244.41;4894696;29;20044;-76
2021/03/22 08:01:46;;;;;;;41.17;19.17;;;;;;;2.80;98.87;99242.06;4894247;29;20509;-75
2021/03/22 08:04:24;;;;;;;;;;;;;;;2.82;98.86;99240.47;4894474;29;20051;-74
2021/03/22 08:07:10;;;;;;;8.73;6.23;;;;;;;2.74;98.28;99232.44;4895497;29;20014;-75
2021/03/22 08:12:57;;;;;;;35.23;30.97;;;;;;;2.91;98.79;99238.34;4894977;29;20072;-75
2021/03/22 08:15:28;;;;;;;27.43;23.50;;;;;;;2.96;99.27;99229.22;4893646;29;20032;-75
2021/03/22 08:18:00;;;;;;;12.67;10.50;;;;;;;3.03;98.92;99244.03;4895064;29;20116;-75
2021/03/22 08:20:30;;;;;;;6.00;3.70;;;;;;;2.56;98.49;99166.19;4895396;29;20047;-75
2021/03/22 08:23:12;;;;;;;9.00;8.10;;;;;;;2.95;97.71;99237.69;4898681;29;20039;-74
2021/03/22 08:25:49;;;;;;;12.37;11.17;;;;;;;2.79;97.57;99202.97;4914105;29;20435;-75
2021/03/22 08:28:23;;;;;;;4.93;3.30;;;;;;;2.98;97.84;99230.19;4913425;29;20180;-74
2021/03/22 08:31:08;;;;;;;33.80;30.80;;;;;;;2.98;97.26;99240.38;4913988;29;20502;-74
2021/03/22 08:34:30;;;;;;;6.63;5.93;;;;;;;2.98;96.82;99231.84;4912568;29;20046;-74
2021/03/22 08:37:30;;;;;;;24.10;11.33;;;;;;;3.00;97.34;99220.06;4912149;29;20071;-75
2021/03/22 08:40:04;;;;;;;;;;;;;;;3.02;97.58;99216.78;4871341;29;20037;-72
2021/03/22 08:42:42;;;;;;;13.00;8.67;;;;;;;3.05;98.26;99205.84;4871370;29;19931;-75
2021/03/22 08:45:22;;;;;;;14.80;8.10;;;;;;;3.11;98.65;99215.47;4873484;29;20057;-72
2021/03/22 08:47:56;;;;;;;;;;;;;;;3.16;98.79;99224.19;4876376;29;20045;-75
2021/03/22 08:50:59;;;;;;;13.27;10.00;;;;;;;3.22;98.37;99222.78;4874824;29;19938;-75
2021/03/22 08:53:33;;;;;;;16.90;15.13;;;;;;;3.12;97.82;99220.63;4873474;29;20052;-72
2021/03/22 08:56:03;;;;;;;4.30;3.27;;;;;;;3.12;97.92;99207.03;4875551;29;20033;-72
2021/03/22 08:58:31;;;;;;;3.40;2.40;;;;;;;3.21;97.25;99200.63;4873411;29;20041;-74
2021/03/22 09:01:22;;;;;;;7.40;5.90;;;;;;;3.29;97.68;99205.22;4875240;29;20097;-73
2021/03/22 09:03:51;;;;;;;14.77;11.10;;;;;;;3.20;97.42;99198.03;4876015;29;20505;-75
2021/03/22 09:06:28;;;;;;;3.58;2.60;;;;;;;3.23;96.76;99216.91;4876613;29;20045;-75
2021/03/22 09:09:00;;;;;;;6.67;5.00;;;;;;;3.15;96.24;99191.84;4905669;29;20681;-76
2021/03/22 09:14:50;;;;;;;3.40;2.67;;;;;;;3.15;96.54;99210.56;4930612;29;20066;-73
2021/03/22 09:18:00;;;;;;;2.17;1.75;;;;;;;3.16;96.18;99211.44;4974738;28;20050;-73
2021/03/22 09:20:29;;;;;;;3.50;2.38;;;;;;;2.97;97.67;99159.59;4991728;28;20026;-75
2021/03/22 09:23:01;;;;;;;2.20;1.73;;;;;;;3.21;98.46;99200.63;4990552;28;20043;-75
2021/03/22 09:25:45;;;;;;;16.33;6.80;;;;;;;3.15;96.56;99190.16;4991345;28;20073;-75
2021/03/22 09:28:25;;;;;;;9.43;4.23;;;;;;;3.17;96.61;99183.47;4990093;28;20022;-72
2021/03/22 09:30:54;;;;;;;17.37;9.87;;;;;;;3.28;97.09;99190.72;4989977;28;20022;-75
2021/03/22 09:34:00;;;;;;;8.30;5.53;;;;;;;3.38;97.13;99181.00;4993069;28;20134;-75
2021/03/22 09:36:32;;;;;;;3.50;2.10;;;;;;;3.35;97.58;99165.56;4946479;29;20049;-73
2021/03/22 09:39:01;;;;;;;8.67;4.67;;;;;;;3.31;97.79;99171.31;4949372;29;20031;-72
2021/03/22 09:42:04;;;;;;;4.10;2.60;;;;;;;3.27;96.99;99173.69;4948962;29;20569;-73
2021/03/22 09:44:55;;;;;;;2.70;2.13;;;;;;;3.21;96.65;99179.38;4945357;29;20062;-76
2021/03/22 09:47:41;;;;;;;3.70;2.20;;;;;;;3.29;97.24;99175.50;4909660;29;20040;-73
2021/03/22 09:50:21;;;;;;;13.27;12.10;;;;;;;3.16;96.90;99183.41;4912682;29;20136;-75
2021/03/22 09:52:53;;;;;;;24.10;21.50;;;;;;;3.16;96.75;99185.94;4911845;29;20099;-75
2021/03/22 09:55:27;;;;;;;4.40;3.00;;;;;;;3.30;97.39;99201.88;4911838;29;20127;-74
2021/03/22 09:58:34;;;;;;;4.20;1.90;;;;;;;3.35;96.94;99197.84;4912912;29;20133;-73
2021/03/22 10:01:05;;;;;;;3.10;2.43;;;;;;;3.37;96.72;99209.00;4895117;29;20044;-73
2021/03/22 10:03:45;;;;;;;2.73;1.90;;;;;;;3.07;96.00;99153.25;4895744;29;20036;-74
2021/03/22 10:06:46;;;;;;;4.23;2.53;;;;;;;3.43;96.28;99216.03;4894544;29;20513;-74
2021/03/22 10:09:17;;;;;;;2.63;1.80;;;;;;;3.43;96.06;99205.84;4884659;29;20036;-73
2021/03/22 10:11:46;;;;;;;6.10;3.90;;;;;;;3.38;97.34;99211.63;4884169;29;20048;-73
2021/03/22 10:14:28;;;;;;;4.78;3.10;;;;;;;3.51;97.42;99209.63;4893807;29;20037;-74
2021/03/22 10:16:53;;;;;;;60.10;21.60;;;;;;;3.54;98.04;99209.78;4901430;29;20043;-74
2021/03/22 10:19:23;;;;;;;6.33;4.13;;;;;;;3.59;97.76;99207.41;4903348;29;20036;-74
2021/03/22 10:21:52;;;;;;;7.65;3.92;;;;;;;3.58;96.99;99204.00;4903763;29;20047;-74
2021/03/22 10:24:36;;;;;;;36.30;14.47;;;;;;;3.61;96.42;99209.22;4890894;29;20119;-74
2021/03/22 10:27:18;;;;;;;97.97;51.72;;;;;;;3.61;96.73;99205.81;4882795;29;20064;-73
2021/03/22 10:29:43;;;;;;;41.77;37.83;;;;;;;3.64;96.30;99206.81;4863137;29;20552;-73
2021/03/22 10:32:09;;;;;;;5.30;4.70;;;;;;;3.59;96.84;99215.94;4900454;29;20071;-73
2021/03/22 10:34:45;;;;;;;4.03;3.00;;;;;;;3.62;96.40;99207.56;4912533;29;20024;-72
2021/03/22 10:37:20;;;;;;;4.75;3.70;;;;;;;3.62;96.42;99194.78;4911997;29;20492;-73
2021/03/22 10:39:48;;;;;;;5.60;2.85;;;;;;;3.52;96.46;99175.66;4914619;29;20043;-78
2021/03/22 10:42:36;;;;;;;3.60;2.33;;;;;;;3.49;96.07;99165.28;4911491;29;20060;-73
2021/03/22 10:45:24;;;;;;;3.67;2.55;;;;;;;3.73;95.62;99209.75;4962532;28;20450;-71
2021/03/22 10:47:51;;;;;;;3.03;2.10;;;;;;;3.66;95.09;99205.19;4991808;28;20035;-73
2021/03/22 10:50:32;;;;;;;3.00;2.05;;;;;;;3.65;95.60;99205.13;4990700;28;20394;-74
2021/03/22 10:53:17;;;;;;;2.53;1.80;;;;;;;3.70;95.75;99204.53;4991791;28;20138;-73
2021/03/22 10:55:46;;;;;;;3.70;2.60;;;;;;;3.67;96.34;99217.16;4991677;28;20034;-73
2021/03/22 10:58:33;;;;;;;6.03;2.63;;;;;;;3.65;96.77;99213.69;4992111;28;20105;-73
2021/03/22 11:01:08;;;;;;;3.03;2.15;;;;;;;3.75;95.99;99225.16;4992093;28;20740;-72
2021/03/22 11:03:37;;;;;;;3.08;2.05;;;;;;;3.70;95.92;99211.31;4991762;28;20034;-74
2021/03/22 11:06:31;;;;;;;9.35;4.72;;;;;;;3.72;96.56;99202.91;4994625;28;20038;-74
2021/03/22 11:09:00;;;;;;;6.05;2.50;;;;;;;3.77;96.19;99200.56;4991454;28;20030;-74
2021/03/22 11:11:30;;;;;;;3.38;2.20;;;;;;;3.76;96.94;99205.59;4990293;28;20449;-73
2021/03/22 11:13:58;;;;;;;;;;;;;;;3.80;97.79;99207.47;4989537;28;20034;-73
2021/03/22 11:19:48;;;;;;;5.45;2.90;;;;;;;3.74;96.27;99195.34;4990279;28;20146;-73
2021/03/22 11:22:36;;;;;;;6.05;3.40;;;;;;;3.68;96.65;99180.63;4988915;28;20054;-73
2021/03/22 11:25:23;;;;;;;4.20;2.78;;;;;;;3.68;96.09;99195.94;4994347;28;20437;-74
2021/03/22 11:28:02;;;;;;;5.18;2.83;;;;;;;3.81;96.56;99211.78;4994831;28;20068;-73
2021/03/22 11:30:34;;;;;;;5.95;2.85;;;;;;;3.86;95.96;99197.53;4995114;28;20037;-73
2021/03/22 11:33:05;;;;;;;7.50;5.35;;;;;;;3.85;95.02;99177.91;4995378;28;20038;-73
2021/03/22 11:35:30;;;;;;;4.88;3.05;;;;;;;3.87;95.79;99181.41;4995027;28;20054;-72
2021/03/22 11:38:02;;;;;;;3.45;2.30;;;;;;;3.79;94.95;99175.97;4994910;28;20065;-72
2021/03/22 11:40:33;;;;;;;4.20;2.53;;;;;;;3.55;95.02;99143.50;4995427;28;20582;-72
2021/03/22 11:43:22;;;;;;;4.43;2.20;;;;;;;3.58;94.62;99145.31;4995585;28;20509;-73
2021/03/22 11:45:48;;;;;;;4.50;2.80;;;;;;;3.87;96.00;99195.03;4994422;28;20031;-73
2021/03/22 11:48:19;;;;;;;4.10;1.80;;;;;;;3.84;nan;99201.72;4994035;28;20035;-73
2021/03/22 11:50:46;;;;;;;2.67;1.90;;;;;;;3.82;96.00;99188.00;4994516;28;20031;-73
2021/03/22 11:53:20;;;;;;;22.38;9.13;;;;;;;3.87;95.82;99201.84;4992356;28;20109;-74
2021/03/22 11:55:47;;;;;;;9.07;4.38;;;;;;;3.84;95.92;99191.50;4994699;28;20426;-72
2021/03/22 11:58:34;;;;;;;49.73;17.00;;;;;;;3.89;95.96;99193.44;4994613;28;20069;-73
2021/03/22 12:01:19;;;;;;;64.38;22.38;;;;;;;3.86;95.80;99206.09;4994458;28;20054;-72
2021/03/22 12:03:46;;;;;;;20.33;7.60;;;;;;;3.89;96.00;99213.00;4994830;28;20034;-73
2021/03/22 12:06:16;;;;;;;4.03;2.50;;;;;;;3.97;97.34;99221.84;4993688;28;20105;-73
2021/03/22 12:08:45;;;;;;;6.82;4.50;;;;;;;4.05;97.37;99210.28;4994601;28;20022;-73
2021/03/22 12:11:18;;;;;;;19.23;16.13;;;;;;;4.12;97.10;99208.84;4994439;28;20445;-73
2021/03/22 12:13:46;;;;;;;7.65;6.15;;;;;;;3.94;96.82;99178.31;4976240;28;20050;-73
2021/03/22 12:16:19;;;;;;;4.30;2.78;;;;;;;4.21;96.28;99203.25;4994325;28;20026;-73
2021/03/22 12:18:45;;;;;;;2.03;1.70;;;;;;;4.21;95.68;99205.81;4993999;28;20034;-73